Time;durP1;ratioP1;P1;durP2;ratioP2;P2;SDS_P1;SDS_P2;PMS_P1;PMS_P2;Temp;Humidity;BMP_temperature;BMP_pressure;BME280_temperature;BME280_humidity;BME280_pressure;Samples;Min_cycle;Max_cycle;Signal;HPM_P1;HPM_P2
2022/03/17 00:02:05;;;;;;;;;;;;;;;11.25;41.50;100127.25;4499213;31;35249;-81
2022/03/17 00:04:34;;;;;;;;;;;;;;;10.63;42.60;100136.00;4493340;31;35333;-80
2022/03/17 00:07:01;;;;;;;;;;;;;;;11.44;40.75;100137.28;4499034;31;34307;-80
2022/03/17 00:09:28;;;;;;;;;;;;;;;11.58;40.35;100135.87;4482974;31;33584;-80
2022/03/17 00:11:56;;;;;;;;;;;;;;;11.58;40.06;100138.47;4487112;31;33663;-81
2022/03/17 00:14:24;;;;;;;;;;;;;;;11.84;39.60;100143.47;4482975;32;34380;-80
2022/03/17 00:16:51;;;;;;;;;;;;;;;10.69;41.62;100145.69;4483305;32;34403;-79
2022/03/17 00:19:19;;;;;;;;;;;;;;;11.91;39.34;100148.84;4483323;32;33614;-80
2022/03/17 00:21:46;;;;;;;;;;;;;;;11.49;40.29;100150.38;4483047;32;34052;-81
2022/03/17 00:24:13;;;;;;;;;;;;;;;11.41;40.58;100163.19;4482643;32;34402;-81
2022/03/17 00:26:40;;;;;;;;;;;;;;;11.44;40.34;100152.87;4483485;32;34593;-81
2022/03/17 00:29:08;;;;;;;;;;;;;;;11.70;39.64;100148.28;4483431;32;34450;-81
2022/03/17 00:31:39;;;;;;;;;;;;;;;11.71;39.71;100154.38;4483095;32;34854;-80
2022/03/17 00:34:07;;;;;;;;;;;;;;;12.06;38.95;100145.72;4483333;32;34225;-80
2022/03/17 00:36:35;;;;;;;;;;;;;;;12.12;38.53;100144.94;4483152;32;34077;-81
2022/03/17 00:39:04;;;;;;;;;;;;;;;11.95;38.77;100141.13;4468439;32;33311;-80
2022/03/17 00:41:32;;;;;;;;;;;;;;;12.20;38.28;100145.13;4468863;32;35115;-80
2022/03/17 00:43:59;;;;;;;;;;;;;;;11.90;38.67;100148.81;4483180;32;35408;-81
2022/03/17 00:46:26;;;;;;;;;;;;;;;11.56;39.26;100152.28;4483155;32;34357;-80
2022/03/17 00:48:53;;;;;;;;;;;;;;;11.94;38.54;100145.44;4482192;32;33473;-82
2022/03/17 00:51:21;;;;;;;;;;;;;;;12.27;37.68;100154.81;4482660;32;34362;-81
2022/03/17 00:53:48;;;;;;;;;;;;;;;11.65;38.61;100153.38;4482952;32;32978;-80
2022/03/17 00:56:15;;;;;;;;;;;;;;;11.54;38.61;100153.97;4468988;32;34425;-81
2022/03/17 00:58:45;;;;;;;;;;;;;;;11.52;38.98;100148.75;4482827;32;33734;-80
2022/03/17 01:01:14;;;;;;;;;;;;;;;11.73;38.41;100152.69;4483026;32;34000;-80
2022/03/17 01:03:45;;;;;;;;;;;;;;;11.78;38.28;100164.97;4483017;32;33990;-80
2022/03/17 01:06:12;;;;;;;;;;;;;;;11.64;38.48;100167.22;4468593;32;34118;-82
2022/03/17 01:08:39;;;;;;;;;;;;;;;11.59;38.58;100158.44;4483466;32;33411;-81
2022/03/17 01:11:07;;;;;;;;;;;;;;;11.97;38.12;100161.09;4482990;32;34265;-81
2022/03/17 01:13:34;;;;;;;;;;;;;;;12.18;37.73;100161.56;4496466;31;34507;-81
2022/03/17 01:16:01;;;;;;;;;;;;;;;11.87;38.06;100164.31;4496743;31;34556;-81
2022/03/17 01:18:29;;;;;;;;;;;;;;;10.71;40.26;100164.75;4497282;31;34247;-81
2022/03/17 01:20:57;;;;;;;;;;;;;;;10.28;41.45;100166.13;4494154;31;33916;-81
2022/03/17 01:23:25;;;;;;;;;;;;;;;11.01;39.91;100171.63;4498292;31;35970;-82
2022/03/17 01:25:52;;;;;;;;;;;;;;;10.00;41.74;100172.16;4498376;31;34450;-82
2022/03/17 01:28:19;;;;;;;;;;;;;;;10.28;42.02;100166.13;4497979;31;33661;-82
2022/03/17 01:30:46;;;;;;;;;;;;;;;11.12;40.06;100165.00;4498678;31;34109;-81
2022/03/17 01:33:14;;;;;;;;;;;;;;;11.25;39.64;100158.41;4498456;31;34144;-81
2022/03/17 01:35:41;;;;;;;;;;;;;;;11.54;39.07;100162.63;4498462;31;34184;-81
2022/03/17 01:38:08;;;;;;;;;;;;;;;11.11;40.11;100166.72;4498676;31;33900;-81
2022/03/17 01:40:35;;;;;;;;;;;;;;;11.47;39.18;100163.31;4498033;31;34280;-81
2022/03/17 01:43:03;;;;;;;;;;;;;;;11.97;38.14;100160.19;4487265;31;34087;-82
2022/03/17 01:45:30;;;;;;;;;;;;;;;11.72;38.55;100159.59;4498807;31;34486;-80
2022/03/17 01:47:57;;;;;;;;;;;;;;;11.67;38.40;100158.63;4498373;31;33190;-81
2022/03/17 01:50:24;;;;;;;;;;;;;;;11.89;38.05;100160.94;4498333;31;33780;-81
2022/03/17 01:52:51;;;;;;;;;;;;;;;11.52;38.61;100166.06;4498190;31;34941;-80
2022/03/17 01:55:19;;;;;;;;;;;;;;;12.00;37.86;100161.16;4482480;32;34140;-81
2022/03/17 01:57:47;;;;;;;;;;;;;;;11.59;38.80;100167.94;4482340;32;34567;-80
2022/03/17 02:00:17;;;;;;;;;;;;;;;10.89;40.09;100172.19;4482431;32;33943;-80
2022/03/17 02:02:45;;;;;;;;;;;;;;;11.02;40.20;100178.56;4495119;31;35235;-80
2022/03/17 02:05:13;;;;;;;;;;;;;;;11.44;39.48;100173.66;4481397;31;34649;-81
2022/03/17 02:07:42;;;;;;;;;;;;;;;11.32;39.51;100175.91;4481140;32;33600;-82
2022/03/17 02:10:10;;;;;;;;;;;;;;;11.22;39.85;100176.53;4481365;32;34308;-80
2022/03/17 02:15:24;;;;;;;;;;;;;;;10.29;41.63;100182.53;4482458;32;34497;-81
2022/03/17 02:17:52;;;;;;;;;;;;;;;10.88;40.29;100192.06;4467687;32;34565;-80
2022/03/17 02:20:20;;;;;;;;;;;;;;;11.75;38.47;100195.19;4489913;31;34166;-81
2022/03/17 02:22:48;;;;;;;;;;;;;;;11.52;38.66;100195.50;4489047;31;34087;-80
2022/03/17 02:25:35;;;;;;;;;;;;;;;11.65;38.34;100188.88;4497914;31;34071;-81
2022/03/17 02:28:03;;;;;;;;;;;;;;;11.66;38.44;100195.81;4485092;31;33207;-81
2022/03/17 02:30:31;;;;;;;;;;;;;;;11.74;38.30;100188.22;4497236;31;34716;-81
2022/03/17 02:32:59;;;;;;;;;;;;;;;10.74;40.28;100198.56;4497430;31;34439;-80
2022/03/17 02:35:26;;;;;;;;;;;;;;;11.18;39.39;100194.59;4498936;31;35059;-81
2022/03/17 02:37:55;;;;;;;;;;;;;;;11.27;39.41;100193.09;4485620;31;34463;-82
2022/03/17 02:40:22;;;;;;;;;;;;;;;10.56;40.29;100201.50;4499718;31;34241;-82
2022/03/17 02:42:50;;;;;;;;;;;;;;;10.13;41.86;100205.38;4499152;31;34434;-81
2022/03/17 02:45:18;;;;;;;;;;;;;;;9.44;43.23;100208.31;4499488;31;36050;-81
2022/03/17 02:47:46;;;;;;;;;;;;;;;10.71;40.54;100209.72;4499908;31;33751;-81
2022/03/17 02:50:13;;;;;;;;;;;;;;;10.47;40.99;100206.41;4499601;31;34134;-81
2022/03/17 02:52:40;;;;;;;;;;;;;;;10.60;40.53;100213.72;4499638;31;34116;-81
2022/03/17 02:55:08;;;;;;;;;;;;;;;10.66;40.64;100213.03;4499192;31;34139;-80
2022/03/17 02:57:36;;;;;;;;;;;;;;;11.03;39.74;100217.56;4499824;31;33932;-81
2022/03/17 03:00:09;;;;;;;;;;;;;;;11.04;39.45;100215.84;4484616;31;34196;-81
2022/03/17 03:02:36;;;;;;;;;;;;;;;11.63;38.38;100220.00;4499785;31;34476;-80
2022/03/17 03:05:04;;;;;;;;;;;;;;;11.59;38.12;100223.37;4485557;31;35444;-81
2022/03/17 03:07:32;;;;;;;;;;;;;;;11.75;37.61;100222.03;4499830;31;34428;-80
2022/03/17 03:09:59;;;;;;;;;;;;;;;11.91;37.35;100237.19;4485206;31;34208;-80
2022/03/17 03:12:26;;;;;;;;;;;;;;;11.96;37.07;100231.22;4499589;31;33939;-81
2022/03/17 03:14:53;;;;;;;;;;;;;;;12.01;36.95;100230.50;4499554;31;34593;-80
2022/03/17 03:17:25;;;;;;;;;;;;;;;12.21;36.55;100223.16;4499950;31;34266;-80
2022/03/17 03:19:53;;;;;;;;;;;;;;;11.80;37.12;100230.81;4499069;31;35051;-81
2022/03/17 03:22:20;;;;;;;;;;;;;;;12.17;36.49;100232.63;4499409;31;34091;-80
2022/03/17 03:24:48;;;;;;;;;;;;;;;12.23;36.46;100226.66;4498486;31;33688;-80
2022/03/17 03:27:15;;;;;;;;;;;;;;;11.50;37.48;100223.13;4499186;31;33514;-80
2022/03/17 03:29:42;;;;;;;;;;;;;;;11.34;37.82;100223.56;4498771;31;34804;-79
2022/03/17 03:32:10;;;;;;;;;;;;;;;11.42;37.72;100217.72;4494165;31;35872;-80
2022/03/17 03:34:37;;;;;;;;;;;;;;;11.88;36.77;100225.84;4497611;31;34205;-80
2022/03/17 03:37:23;;;;;;;;;;;;;;;11.69;36.95;100227.06;4499314;31;32639;-80
2022/03/17 03:39:51;;;;;;;;;;;;;;;12.05;36.49;100228.84;4493688;31;34214;-80
2022/03/17 03:42:18;;;;;;;;;;;;;;;11.81;37.15;100236.87;4484984;31;35365;-79
2022/03/17 03:44:46;;;;;;;;;;;;;;;11.89;37.08;100240.56;4498826;31;35162;-81
2022/03/17 03:47:13;;;;;;;;;;;;;;;10.47;40.31;100240.13;4498826;31;33603;-80
2022/03/17 03:49:42;;;;;;;;;;;;;;;11.10;39.26;100244.53;4499333;31;34289;-80
2022/03/17 03:52:10;;;;;;;;;;;;;;;11.20;38.92;100242.22;4488850;31;34306;-81
2022/03/17 03:54:37;;;;;;;;;;;;;;;11.42;38.50;100245.41;4489059;31;35196;-81
2022/03/17 03:57:06;;;;;;;;;;;;;;;11.32;38.74;100246.00;4498186;31;33652;-80
2022/03/17 03:59:33;;;;;;;;;;;;;;;11.49;38.10;100249.94;4498390;31;33744;-81
2022/03/17 04:02:02;;;;;;;;;;;;;;;11.57;37.83;100243.22;4494782;31;35276;-80
2022/03/17 04:04:29;;;;;;;;;;;;;;;10.14;40.82;100234.75;4499380;31;34502;-80
2022/03/17 04:06:58;;;;;;;;;;;;;;;11.07;38.68;100229.78;4499126;31;33684;-79
2022/03/17 04:09:27;;;;;;;;;;;;;;;11.46;37.83;100223.87;4495862;31;35074;-80
2022/03/17 04:11:54;;;;;;;;;;;;;;;11.49;37.70;100223.97;4493279;31;34459;-81
2022/03/17 04:14:22;;;;;;;;;;;;;;;11.05;38.32;100227.97;4499064;31;34281;-81
2022/03/17 04:16:49;;;;;;;;;;;;;;;11.24;38.10;100221.56;4483625;31;33412;-79
2022/03/17 04:19:17;;;;;;;;;;;;;;;11.62;37.07;100215.62;4495983;31;34114;-80
2022/03/17 04:21:45;;;;;;;;;;;;;;;11.44;36.94;100216.06;4498785;31;34259;-81
2022/03/17 04:24:12;;;;;;;;;;;;;;;11.07;37.52;100214.19;4484326;31;34880;-81
2022/03/17 04:26:40;;;;;;;;;;;;;;;10.35;38.94;100219.91;4498633;31;33656;-80
2022/03/17 04:29:09;;;;;;;;;;;;;;;10.99;37.87;100223.50;4484795;31;34274;-81
2022/03/17 04:31:37;;;;;;;;;;;;;;;11.12;37.66;100235.09;4485207;31;34210;-81
2022/03/17 04:34:05;;;;;;;;;;;;;;;11.15;37.77;100242.97;4485268;31;34672;-81
2022/03/17 04:36:32;;;;;;;;;;;;;;;11.49;37.07;100244.75;4498118;31;33979;-81
2022/03/17 04:39:00;;;;;;;;;;;;;;;11.61;36.56;100260.63;4497956;31;35003;-81
2022/03/17 04:41:27;;;;;;;;;;;;;;;11.33;37.21;100263.34;4497956;31;35222;-81
2022/03/17 04:43:55;;;;;;;;;;;;;;;11.43;36.76;100258.44;4499062;31;34224;-81
2022/03/17 04:46:22;;;;;;;;;;;;;;;11.26;36.96;100264.91;4497877;31;33647;-81
2022/03/17 04:48:50;;;;;;;;;;;;;;;11.33;36.92;100255.56;4498716;31;34059;-81
2022/03/17 04:51:18;;;;;;;;;;;;;;;11.04;37.09;100253.03;4498357;31;35433;-81
2022/03/17 04:53:45;;;;;;;;;;;;;;;11.45;36.47;100258.50;4497927;31;34252;-81
2022/03/17 04:56:14;;;;;;;;;;;;;;;10.99;37.28;100256.34;4498503;31;34980;-81
2022/03/17 04:58:41;;;;;;;;;;;;;;;11.36;36.71;100256.50;4497285;31;35049;-81
2022/03/17 05:01:10;;;;;;;;;;;;;;;11.51;36.28;100269.00;4498673;31;34333;-81
2022/03/17 05:03:38;;;;;;;;;;;;;;;11.54;36.04;100271.69;4498190;31;34312;-80
2022/03/17 05:06:05;;;;;;;;;;;;;;;11.34;36.21;100270.31;4484172;31;34484;-80
2022/03/17 05:08:34;;;;;;;;;;;;;;;11.53;36.04;100277.75;4456407;31;874599;-80
2022/03/17 05:11:04;;;;;;;;;;;;;;;11.79;35.46;100272.34;4484502;31;34430;-80
2022/03/17 05:13:31;;;;;;;;;;;;;;;11.76;35.60;100283.53;4498547;31;34259;-80
2022/03/17 05:15:59;;;;;;;;;;;;;;;11.64;35.88;100291.91;4497323;31;34405;-81
2022/03/17 05:18:27;;;;;;;;;;;;;;;11.52;36.36;100301.09;4498573;31;34081;-81
2022/03/17 05:20:54;;;;;;;;;;;;;;;11.47;36.45;100308.72;4497966;31;34825;-79
2022/03/17 05:23:21;;;;;;;;;;;;;;;11.23;37.38;100315.84;4498992;31;34152;-80
2022/03/17 05:25:49;;;;;;;;;;;;;;;11.01;37.78;100323.00;4498251;31;33247;-80
2022/03/17 05:28:17;;;;;;;;;;;;;;;10.77;38.28;100330.06;4498211;31;35052;-80
2022/03/17 05:30:44;;;;;;;;;;;;;;;10.93;38.23;100327.97;4497729;31;34936;-78
2022/03/17 05:33:12;;;;;;;;;;;;;;;11.16;37.71;100320.84;4498316;31;35358;-80
2022/03/17 05:35:39;;;;;;;;;;;;;;;11.34;37.47;100327.41;4498727;31;33152;-81
2022/03/17 05:38:07;;;;;;;;;;;;;;;11.08;38.13;100329.25;4497999;31;33537;-81
2022/03/17 05:40:35;;;;;;;;;;;;;;;11.57;37.27;100331.53;4498047;31;35180;-80
2022/03/17 05:43:03;;;;;;;;;;;;;;;11.27;37.91;100338.47;4491585;31;34266;-81
2022/03/17 05:45:30;;;;;;;;;;;;;;;11.75;37.29;100353.66;4484827;31;33492;-80
2022/03/17 05:47:59;;;;;;;;;;;;;;;11.88;37.00;100358.34;4497116;31;32788;-81
2022/03/17 05:50:34;;;;;;;;;;;;;;;12.14;36.63;100356.44;4496953;31;34487;-81
2022/03/17 05:53:01;;;;;;;;;;;;;;;11.69;37.84;100362.16;4498418;31;35302;-80
2022/03/17 05:55:29;;;;;;;;;;;;;;;11.56;38.07;100363.53;4497894;31;33522;-81
2022/03/17 05:57:57;;;;;;;;;;;;;;;10.57;39.85;100376.09;4499217;31;35045;-81
2022/03/17 06:00:25;;;;;;;;;;;;;;;11.71;38.03;100372.59;4497831;31;34260;-81
2022/03/17 06:02:53;;;;;;;;;;;;;;;11.55;38.19;100374.75;4497700;31;33829;-81
2022/03/17 06:05:20;;;;;;;;;;;;;;;12.42;36.33;100376.19;4496202;31;33146;-81
2022/03/17 06:07:48;;;;;;;;;;;;;;;12.39;36.54;100379.63;4497561;31;35290;-81
2022/03/17 06:10:16;;;;;;;;;;;;;;;12.04;36.83;100383.03;4498875;31;34634;-82
2022/03/17 06:12:44;;;;;;;;;;;;;;;12.53;36.41;100390.34;4484727;31;33867;-81
2022/03/17 06:15:11;;;;;;;;;;;;;;;12.68;35.50;100382.03;4488106;31;33367;-81
2022/03/17 06:17:40;;;;;;;;;;;;;;;12.41;34.52;100383.13;4498823;31;35124;-81
2022/03/17 06:20:09;;;;;;;;;;;;;;;12.75;33.51;100380.47;4499750;31;34536;-82
2022/03/17 06:22:40;;;;;;;;;;;;;;;12.82;34.06;100390.16;4499502;31;34395;-80
2022/03/17 06:25:08;;;;;;;;;;;;;;;13.30;33.46;100398.25;4500071;31;33730;-80
2022/03/17 06:27:36;;;;;;;;;;;;;;;13.48;33.69;100395.12;4499578;31;34081;-80
2022/03/17 06:30:03;;;;;;;;;;;;;;;13.20;32.70;100405.78;4500000;31;34333;-81
2022/03/17 06:32:31;;;;;;;;;;;;;;;12.48;33.82;100410.16;4499408;31;35331;-80
2022/03/17 06:34:58;;;;;;;;;;;;;;;12.00;34.44;100418.44;4500010;31;34518;-80
2022/03/17 06:37:25;;;;;;;;;;;;;;;12.11;34.48;100418.75;4499020;31;34108;-81
2022/03/17 06:39:56;;;;;;;;;;;;;;;11.03;35.15;100421.69;4498618;31;34125;-81
2022/03/17 06:42:23;;;;;;;;;;;;;;;11.29;35.70;100412.97;4500030;31;34126;-81
2022/03/17 06:44:50;;;;;;;;;;;;;;;11.23;35.93;100406.69;4500135;31;33217;-82
2022/03/17 06:47:20;;;;;;;;;;;;;;;11.28;35.50;100406.00;4499885;31;34723;-81
2022/03/17 06:49:48;;;;;;;;;;;;;;;11.34;35.14;100413.09;4499933;31;34441;-82
2022/03/17 06:52:15;;;;;;;;;;;;;;;11.30;35.52;100409.53;4499850;31;35243;-81
2022/03/17 06:54:42;;;;;;;;;;;;;;;10.64;36.51;100416.97;4499842;31;33732;-81
2022/03/17 06:57:09;;;;;;;;;;;;;;;10.52;37.01;100430.41;4499371;31;34342;-81
2022/03/17 06:59:36;;;;;;;;;;;;;;;10.60;37.02;100426.34;4499975;31;34082;-81
2022/03/17 07:02:04;;;;;;;;;;;;;;;10.64;37.05;100430.81;4499636;31;35232;-82
2022/03/17 07:04:31;;;;;;;;;;;;;;;10.85;36.20;100435.81;4499976;31;33433;-81
2022/03/17 07:06:59;;;;;;;;;;;;;;;11.05;36.49;100433.84;4499950;31;34988;-81
2022/03/17 07:09:26;;;;;;;;;;;;;;;11.36;36.41;100426.97;4499823;31;35310;-81
2022/03/17 07:11:53;;;;;;;;;;;;;;;10.58;36.68;100441.00;4499777;31;34073;-81
2022/03/17 07:14:21;;;;;;;;;;;;;;;10.16;38.27;100427.44;4499342;31;33146;-83
2022/03/17 07:16:48;;;;;;;;;;;;;;;10.12;38.59;100429.03;4499609;31;34791;-81
2022/03/17 07:19:18;;;;;;;;;;;;;;;10.63;37.92;100426.47;4500131;31;34348;-83
2022/03/17 07:21:46;;;;;;;;;;;;;;;10.32;37.79;100437.53;4498825;31;34287;-82
2022/03/17 07:24:13;;;;;;;;;;;;;;;9.69;39.57;100430.09;4499240;31;33641;-82
2022/03/17 07:26:40;;;;;;;;;;;;;;;9.24;40.30;100440.50;4493653;31;34079;-80
2022/03/17 07:29:08;;;;;;;;;;;;;;;9.93;39.52;100439.59;4488467;31;33896;-81
2022/03/17 07:31:36;;;;;;;;;;;;;;;10.29;39.07;100439.12;4495413;31;35135;-81
2022/03/17 07:34:03;;;;;;;;;;;;;;;10.03;39.23;100431.28;4497593;31;34399;-81
2022/03/17 07:36:31;;;;;;;;;;;;;;;10.24;38.99;100438.94;4499367;31;35034;-80
2022/03/17 07:39:01;;;;;;;;;;;;;;;10.72;38.27;100436.28;4496299;31;33813;-81
2022/03/17 07:41:28;;;;;;;;;;;;;;;9.77;39.84;100434.66;4493905;31;33979;-81
2022/03/17 07:43:56;;;;;;;;;;;;;;;9.62;40.70;100443.66;4495420;31;34177;-81
2022/03/17 07:46:26;;;;;;;;;;;;;;;9.74;40.71;100441.53;4499084;31;34262;-82
2022/03/17 07:48:55;;;;;;;;;;;;;;;10.96;38.74;100434.44;4499507;31;35083;-82
2022/03/17 07:51:23;;;;;;;;;;;;;;;11.57;37.22;100435.41;4499154;31;34280;-82
2022/03/17 07:53:50;;;;;;;;;;;;;;;10.91;38.60;100429.94;4499480;31;33402;-82
2022/03/17 07:56:18;;;;;;;;;;;;;;;11.13;37.65;100440.16;4498754;31;34131;-81
2022/03/17 07:58:45;;;;;;;;;;;;;;;10.38;39.27;100437.75;4498394;31;34321;-82
2022/03/17 08:01:13;;;;;;;;;;;;;;;10.73;38.93;100439.75;4496749;31;33834;-81
2022/03/17 08:03:41;;;;;;;;;;;;;;;10.67;38.51;100456.84;4498911;31;34603;-81
2022/03/17 08:06:09;;;;;;;;;;;;;;;11.68;37.46;100448.72;4499131;31;33827;-81
2022/03/17 08:08:37;;;;;;;;;;;;;;;11.12;37.47;100446.19;4499626;31;34055;-82
2022/03/17 08:11:05;;;;;;;;;;;;;;;11.86;36.53;100440.59;4498206;31;35240;-81
2022/03/17 08:13:33;;;;;;;;;;;;;;;12.46;35.90;100440.44;4498838;31;33663;-81
2022/03/17 08:16:01;;;;;;;;;;;;;;;11.48;37.45;100442.94;4499365;31;35042;-81
2022/03/17 08:18:30;;;;;;;;;;;;;;;11.39;37.55;100453.03;4499658;31;35374;-81
2022/03/17 08:20:57;;;;;;;;;;;;;;;11.71;37.36;100453.13;4499039;31;35391;-81
2022/03/17 08:23:24;;;;;;;;;;;;;;;11.11;38.01;100460.00;4499052;31;33426;-81
2022/03/17 08:25:52;;;;;;;;;;;;;;;10.02;40.21;100467.53;4499313;31;35188;-81
2022/03/17 08:28:19;;;;;;;;;;;;;;;10.57;39.50;100472.97;4499032;31;34438;-81
2022/03/17 08:30:47;;;;;;;;;;;;;;;10.81;39.38;100464.22;4499390;31;34581;-81
2022/03/17 08:33:15;;;;;;;;;;;;;;;11.51;38.64;100458.59;4498193;31;34340;-81
2022/03/17 08:35:42;;;;;;;;;;;;;;;11.71;38.13;100473.91;4499360;31;34039;-81
2022/03/17 08:38:10;;;;;;;;;;;;;;;12.20;37.17;100472.69;4497837;31;35122;-81
2022/03/17 08:40:39;;;;;;;;;;;;;;;12.50;36.71;100476.12;4497959;31;34934;-82
2022/03/17 08:43:10;;;;;;;;;;;;;;;13.80;34.24;100473.09;4499147;31;33486;-82
2022/03/17 08:51:10;;;;;;;;;;;;;;;13.34;34.29;100483.41;4499219;31;34559;-84
2022/03/17 08:53:37;;;;;;;;;;;;;;;13.56;34.41;100474.34;4499076;31;33607;-82
2022/03/17 08:56:04;;;;;;;;;;;;;;;14.36;33.02;100479.41;4497895;31;34131;-82
2022/03/17 08:58:34;;;;;;;;;;;;;;;13.33;34.51;100476.44;4497824;31;34831;-82
2022/03/17 09:01:01;;;;;;;;;;;;;;;12.49;36.19;100481.28;4498933;31;33389;-82
2022/03/17 09:03:30;;;;;;;;;;;;;;;12.70;35.68;100496.56;4498842;31;33440;-82
2022/03/17 09:05:59;;;;;;;;;;;;;;;11.68;37.75;100500.66;4499033;31;34123;-82
2022/03/17 09:08:26;;;;;;;;;;;;;;;11.49;38.59;100498.37;4498817;31;34422;-82
2022/03/17 09:10:55;;;;;;;;;;;;;;;11.13;38.72;100497.25;4497830;31;34447;-82
2022/03/17 09:13:25;;;;;;;;;;;;;;;11.28;39.41;100504.63;4498836;31;33507;-82
2022/03/17 09:15:53;;;;;;;;;;;;;;;11.85;37.84;100489.06;4498878;31;34574;-82
2022/03/17 09:18:21;;;;;;;;;;;;;;;11.30;38.85;100505.59;4498516;31;35247;-84
2022/03/17 09:20:48;;;;;;;;;;;;;;;12.10;37.28;100492.38;4498612;31;34600;-82
2022/03/17 09:23:16;;;;;;;;;;;;;;;12.56;36.30;100496.22;4497856;31;34242;-81
2022/03/17 09:25:43;;;;;;;;;;;;;;;12.89;35.90;100493.59;4498784;31;34927;-82
2022/03/17 09:28:11;;;;;;;;;;;;;;;12.76;35.40;100489.78;4498601;31;34827;-82
2022/03/17 09:30:38;;;;;;;;;;;;;;;11.73;37.38;100498.19;4498767;31;33897;-84
2022/03/17 09:33:06;;;;;;;;;;;;;;;12.29;36.68;100486.84;4498428;31;33366;-83
2022/03/17 09:35:34;;;;;;;;;;;;;;;12.83;35.82;100498.63;4498830;31;34952;-82
2022/03/17 09:38:05;;;;;;;;;;;;;;;13.01;35.83;100491.28;4498805;31;34501;-82
2022/03/17 09:40:36;;;;;;;;;;;;;;;13.70;34.78;100490.25;4497247;31;34892;-82
2022/03/17 09:43:19;;;;;;;;;;;;;;;12.78;36.10;100487.22;4497280;31;33643;-82
2022/03/17 09:45:50;;;;;;;;;;;;;;;13.76;34.49;100484.31;4498426;31;35006;-82
2022/03/17 09:48:17;;;;;;;;;;;;;;;13.84;34.55;100488.81;4498136;31;34292;-84
2022/03/17 09:50:45;;;;;;;;;;;;;;;13.13;34.97;100491.56;4498282;31;35051;-82
2022/03/17 09:53:13;;;;;;;;;;;;;;;12.97;35.56;100496.38;4498518;31;33265;-82
2022/03/17 09:55:43;;;;;;;;;;;;;;;12.73;36.23;100497.53;4496864;31;33684;-82
2022/03/17 09:58:10;;;;;;;;;;;;;;;12.94;35.60;100488.47;4498356;31;33960;-82
2022/03/17 10:00:52;;;;;;;;;;;;;;;13.10;35.50;100488.00;4498457;31;35217;-83
2022/03/17 10:03:25;;;;;;;;;;;;;;;12.61;35.93;100498.09;4498405;31;33789;-82
2022/03/17 10:05:54;;;;;;;;;;;;;;;11.78;36.96;100486.22;4496976;31;34076;-82
2022/03/17 10:08:23;;;;;;;;;;;;;;;11.81;37.24;100502.78;4497946;31;35176;-82
2022/03/17 10:10:52;;;;;;;;;;;;;;;12.32;36.96;100494.72;4498393;31;34428;-83
2022/03/17 10:13:23;;;;;;;;;;;;;;;12.32;36.39;100493.84;4498035;31;33687;-81
2022/03/17 10:16:06;;;;;;;;;;;;;;;11.73;37.83;100491.28;4496626;31;34099;-84
2022/03/17 10:18:37;;;;;;;;;;;;;;;12.40;36.66;100485.41;4498376;31;34236;-84
2022/03/17 10:21:11;;;;;;;;;;;;;;;13.15;35.38;100482.06;4497892;31;35182;-84
2022/03/17 10:23:48;;;;;;;;;;;;;;;13.65;34.86;100475.38;4497971;31;33529;-83
2022/03/17 10:26:31;;;;;;;;;;;;;;;14.10;33.51;100481.53;4497727;31;34297;-82
2022/03/17 10:29:05;;;;;;;;;;;;;;;13.01;34.94;100495.59;4498078;31;35179;-81
2022/03/17 10:31:48;;;;;;;;;;;;;;;13.17;34.86;100482.09;4497658;31;34226;-82
2022/03/17 10:34:16;;;;;;;;;;;;;;;12.78;35.50;100487.22;4497869;31;33703;-82
2022/03/17 10:36:45;;;;;;;;;;;;;;;13.06;34.73;100500.06;4497529;31;34968;-82
2022/03/17 10:39:12;;;;;;;;;;;;;;;12.75;35.38;100500.16;4497633;31;34905;-82
2022/03/17 10:41:41;;;;;;;;;;;;;;;12.80;35.64;100490.72;4497988;31;34472;-83
2022/03/17 10:44:15;;;;;;;;;;;;;;;12.90;35.26;100484.94;4497255;31;34552;-82
2022/03/17 10:46:56;;;;;;;;;;;;;;;13.83;33.85;100483.59;4497691;31;33671;-82
2022/03/17 10:49:23;;;;;;;;;;;;;;;13.82;33.43;100489.62;4497414;31;34518;-82
2022/03/17 10:51:54;;;;;;;;;;;;;;;13.77;33.16;100486.94;4497776;31;34604;-82
2022/03/17 10:54:22;;;;;;;;;;;;;;;14.70;32.47;100482.66;4497660;31;33514;-82
2022/03/17 10:57:05;;;;;;;;;;;;;;;14.57;31.94;100493.72;4499425;31;35135;-82
2022/03/17 10:59:43;;;;;;;;;;;;;;;14.45;33.29;100498.69;4499575;31;33825;-82
2022/03/17 11:02:11;;;;;;;;;;;;;;;14.40;32.61;100501.22;4499929;31;34072;-82
2022/03/17 11:04:40;;;;;;;;;;;;;;;14.91;32.07;100500.41;4499156;31;33958;-83
2022/03/17 11:07:11;;;;;;;;;;;;;;;15.04;32.13;100499.75;4499906;31;33911;-82
2022/03/17 11:09:39;;;;;;;;;;;;;;;14.85;32.23;100505.53;4498783;31;34261;-82
2022/03/17 11:12:07;;;;;;;;;;;;;;;15.18;31.79;100493.84;4498627;31;35190;-82
2022/03/17 11:14:38;;;;;;;;;;;;;;;15.24;31.98;100505.28;4498404;31;33042;-82
2022/03/17 11:17:06;;;;;;;;;;;;;;;14.92;32.56;100502.16;4499891;31;33642;-82
2022/03/17 11:19:33;;;;;;;;;;;;;;;15.08;32.51;100506.78;4499789;31;34222;-81
2022/03/17 11:22:05;;;;;;;;;;;;;;;14.18;33.10;100525.13;4499623;31;35311;-84
2022/03/17 11:24:32;;;;;;;;;;;;;;;13.54;34.85;100517.72;4498709;31;33445;-81
2022/03/17 11:27:06;;;;;;;;;;;;;;;13.72;34.47;100519.84;4499606;31;34057;-82
2022/03/17 11:29:37;;;;;;;;;;;;;;;13.82;34.16;100520.91;4498328;31;34059;-84
2022/03/17 11:32:08;;;;;;;;;;;;;;;13.28;35.93;100514.50;4499591;31;34505;-84
2022/03/17 11:34:38;;;;;;;;;;;;;;;13.16;36.12;100506.38;4499439;31;33634;-82
2022/03/17 11:37:26;;;;;;;;;;;;;;;13.19;36.17;100523.81;4499706;31;34273;-82
2022/03/17 11:39:53;;;;;;;;;;;;;;;14.32;34.24;100508.03;4499542;31;34413;-84
2022/03/17 11:42:30;;;;;;;;;;;;;;;14.34;33.61;100511.53;4499565;31;34631;-82
2022/03/17 11:45:12;;;;;;;;;;;;;;;14.62;34.20;100518.16;4499559;31;33577;-82
2022/03/17 11:47:43;;;;;;;;;;;;;;;13.75;34.96;100514.72;4499697;31;34946;-81
2022/03/17 11:50:33;;;;;;;;;;;;;;;13.93;35.29;100511.59;4499820;31;34307;-82
2022/03/17 11:53:01;;;;;;;;;;;;;;;14.90;34.24;100519.53;4499700;31;34569;-82
2022/03/17 11:55:46;;;;;;;;;;;;;;;14.42;34.38;100524.72;4499611;31;33622;-82
2022/03/17 11:58:14;;;;;;;;;;;;;;;14.24;35.05;100513.06;4499393;31;33602;-82
2022/03/17 12:00:44;;;;;;;;;;;;;;;15.56;33.11;100513.56;4499466;31;34177;-82
2022/03/17 12:03:12;;;;;;;;;;;;;;;15.26;33.66;100515.75;4499415;31;34303;-82
2022/03/17 12:05:39;;;;;;;;;;;;;;;13.97;35.02;100516.00;4499568;31;33631;-82
2022/03/17 12:08:06;;;;;;;;;;;;;;;14.47;34.61;100512.63;4498240;31;35162;-82
2022/03/17 12:10:55;;;;;;;;;;;;;;;14.34;34.36;100503.72;4498283;31;34180;-81
2022/03/17 12:13:24;;;;;;;;;;;;;;;15.22;33.51;100503.50;4499267;31;35335;-82
2022/03/17 12:15:55;;;;;;;;;;;;;;;14.66;34.29;100503.44;4499670;31;34190;-81
2022/03/17 12:18:22;;;;;;;;;;;;;;;14.82;34.18;100508.09;4499350;31;34405;-82
2022/03/17 12:20:52;;;;;;;;;;;;;;;14.64;34.62;100502.53;4499049;31;34433;-82
2022/03/17 12:23:38;;;;;;;;;;;;;;;15.12;34.04;100502.50;4499399;31;35153;-81
2022/03/17 12:26:05;;;;;;;;;;;;;;;14.49;34.61;100504.03;4499007;31;33607;-81
2022/03/17 12:28:33;;;;;;;;;;;;;;;15.37;33.28;100495.88;4499348;31;34039;-84
2022/03/17 12:31:00;;;;;;;;;;;;;;;15.06;33.68;100500.66;4498106;31;34113;-83
2022/03/17 12:33:27;;;;;;;;;;;;;;;15.32;33.56;100508.88;4499029;31;34354;-82
2022/03/17 12:36:04;;;;;;;;;;;;;;;14.96;33.47;100498.72;4497658;31;34354;-82
2022/03/17 12:38:32;;;;;;;;;;;;;;;14.37;34.70;100501.16;4499202;31;33657;-82
2022/03/17 12:41:00;;;;;;;;;;;;;;;15.13;33.54;100504.25;4498703;31;34315;-82
2022/03/17 12:43:27;;;;;;;;;;;;;;;14.30;33.74;100494.06;4499163;31;34321;-82
2022/03/17 12:45:56;;;;;;;;;;;;;;;14.18;34.41;100505.16;4497872;31;33310;-81
2022/03/17 12:48:25;;;;;;;;;;;;;;;15.14;32.93;100510.34;4497782;31;34259;-81
2022/03/17 12:50:52;;;;;;;;;;;;;;;14.53;33.10;100498.00;4499190;31;35165;-85
2022/03/17 12:53:19;;;;;;;;;;;;;;;14.22;33.32;100503.47;4497758;31;35173;-81
2022/03/17 12:55:48;;;;;;;;;;;;;;;14.05;33.48;100504.03;4498853;31;34484;-83